Time;durP1;ratioP1;P1;durP2;ratioP2;P2;SDS_P1;SDS_P2;PMS_P1;PMS_P2;Temp;Humidity;BMP_temperature;BMP_pressure;BME280_temperature;BME280_humidity;BME280_pressure;Samples;Min_cycle;Max_cycle;Signal;HPM_P1;HPM_P2
2023/12/30 00:00:29;;;;;;;11.95;2.60;;;;;;;10.44;67.48;100934.97;5011349;28;20137;-67
2023/12/30 00:02:57;;;;;;;13.93;2.20;;;;;;;10.43;67.46;100936.84;5018418;28;20041;-67
2023/12/30 00:05:27;;;;;;;13.20;3.20;;;;;;;10.44;67.16;100940.34;5021489;28;20057;-66
2023/12/30 00:07:55;;;;;;;9.93;2.60;;;;;;;10.42;67.39;100940.56;5022030;28;20075;-66
2023/12/30 00:10:23;;;;;;;13.30;3.08;;;;;;;10.42;67.26;100935.19;5035302;28;20117;-65
2023/12/30 00:12:52;;;;;;;16.58;2.50;;;;;;;10.42;67.36;100934.38;5025936;28;20041;-66
2023/12/30 00:15:20;;;;;;;16.48;2.60;;;;;;;10.42;67.15;100942.44;5031614;28;20054;-66
2023/12/30 00:17:48;;;;;;;11.05;2.05;;;;;;;10.42;67.13;100945.13;5021138;28;20046;-66
2023/12/30 00:20:16;;;;;;;10.13;2.00;;;;;;;10.39;67.43;100932.97;5030891;28;20056;-66
2023/12/30 00:22:44;;;;;;;11.88;3.25;;;;;;;10.40;67.63;100941.88;5023963;28;20049;-66
2023/12/30 00:25:12;;;;;;;10.82;1.98;;;;;;;10.39;67.43;100949.09;5021817;28;20119;-67
2023/12/30 00:27:40;;;;;;;15.32;2.67;;;;;;;10.38;67.33;100954.69;5021769;28;20122;-66
2023/12/30 00:30:12;;;;;;;8.90;2.10;;;;;;;10.38;67.03;100957.38;5022195;28;20056;-66
2023/12/30 00:32:40;;;;;;;11.77;2.63;;;;;;;10.36;67.21;100960.28;5029538;28;20054;-67
2023/12/30 00:35:08;;;;;;;10.55;2.55;;;;;;;10.37;67.38;100963.78;5022477;28;20050;-66
2023/12/30 00:37:36;;;;;;;12.65;2.75;;;;;;;10.29;66.92;100947.94;5031903;28;20079;-67
2023/12/30 00:40:05;;;;;;;14.27;2.83;;;;;;;10.35;67.42;100965.88;5022717;28;20060;-67
2023/12/30 00:42:33;;;;;;;9.43;2.90;;;;;;;10.35;67.54;100976.63;5023498;28;20480;-66
2023/12/30 00:45:00;;;;;;;6.95;2.33;;;;;;;10.33;67.44;100978.69;5022721;28;20046;-67
2023/12/30 00:47:30;;;;;;;11.68;1.90;;;;;;;10.33;67.46;100979.53;5019827;28;20605;-66
2023/12/30 00:49:58;;;;;;;12.20;3.05;;;;;;;10.32;67.51;100983.25;5031851;28;20506;-67
2023/12/30 00:52:25;;;;;;;12.38;3.35;;;;;;;10.32;67.41;100974.38;5009166;28;20049;-67
2023/12/30 00:54:53;;;;;;;10.52;2.35;;;;;;;10.30;67.41;100976.44;5022570;28;20121;-67
2023/12/30 00:57:21;;;;;;;15.52;2.58;;;;;;;10.25;67.57;100971.72;5025349;28;20046;-66
2023/12/30 00:59:49;;;;;;;9.82;2.35;;;;;;;10.28;67.38;100989.28;5026073;28;20046;-67
2023/12/30 01:02:17;;;;;;;8.25;2.25;;;;;;;10.27;67.64;100993.00;5032603;28;20053;-67
2023/12/30 01:04:46;;;;;;;9.25;2.15;;;;;;;10.27;67.40;100993.00;5026157;28;20046;-67
2023/12/30 01:07:14;;;;;;;11.13;2.60;;;;;;;10.26;67.49;100997.53;5022050;28;20050;-67
2023/12/30 01:09:42;;;;;;;11.98;2.22;;;;;;;10.25;67.57;100998.59;5020834;28;20099;-67
2023/12/30 01:12:09;;;;;;;13.30;2.95;;;;;;;10.25;67.55;100995.06;5022244;28;20046;-67
2023/12/30 01:14:37;;;;;;;16.67;2.20;;;;;;;10.25;67.86;100995.06;5021091;28;20046;-67
2023/12/30 01:17:05;;;;;;;10.02;2.15;;;;;;;10.24;67.87;100996.94;5021917;28;20076;-67
2023/12/30 01:19:33;;;;;;;11.15;2.85;;;;;;;10.24;67.73;100996.13;5018270;28;20394;-67
2023/12/30 01:22:02;;;;;;;11.43;2.47;;;;;;;10.23;67.86;101006.03;5030134;28;20041;-67
2023/12/30 01:24:30;;;;;;;11.38;2.28;;;;;;;10.23;67.94;101011.41;5020257;28;20053;-67
2023/12/30 01:26:58;;;;;;;11.82;2.63;;;;;;;10.23;68.21;101015.94;5020899;28;20046;-67
2023/12/30 01:29:29;;;;;;;12.95;2.85;;;;;;;10.22;67.94;101017.00;5015833;28;20133;-67
2023/12/30 01:31:57;;;;;;;10.82;2.95;;;;;;;10.24;67.99;101028.34;5032508;28;20434;-67
2023/12/30 01:34:24;;;;;;;9.20;2.22;;;;;;;10.22;68.16;101042.00;5019656;28;20086;-67
2023/12/30 01:36:54;;;;;;;11.07;3.42;;;;;;;10.21;68.05;101037.66;5028550;28;20041;-67
2023/12/30 01:39:23;;;;;;;13.98;2.63;;;;;;;10.22;68.02;101049.22;5019096;28;20136;-67
2023/12/30 01:41:51;;;;;;;12.13;3.20;;;;;;;10.20;67.98;101046.75;5033014;28;20063;-67
2023/12/30 01:44:19;;;;;;;13.27;3.30;;;;;;;10.20;67.84;101044.06;5017984;28;20069;-67
2023/12/30 01:46:48;;;;;;;10.07;2.63;;;;;;;10.19;68.27;101030.81;5028356;28;20053;-65
2023/12/30 01:49:16;;;;;;;9.15;2.78;;;;;;;10.20;68.28;101037.88;5017774;28;20057;-66
2023/12/30 01:51:45;;;;;;;16.13;3.63;;;;;;;10.19;68.17;101038.88;5018732;28;20110;-66
2023/12/30 01:54:13;;;;;;;13.73;3.17;;;;;;;10.18;68.24;101031.84;5048986;28;20517;-67
2023/12/30 01:56:42;;;;;;;11.25;2.80;;;;;;;10.18;68.05;101048.78;5049145;28;20046;-67
2023/12/30 01:59:12;;;;;;;14.93;2.88;;;;;;;10.17;68.11;101049.84;5019215;28;20107;-67
2023/12/30 02:01:41;;;;;;;14.05;3.00;;;;;;;10.15;68.06;101053.78;5030836;28;20122;-67
2023/12/30 02:04:09;;;;;;;8.45;2.67;;;;;;;10.16;68.49;101048.19;5024398;28;20046;-66
2023/12/30 02:06:37;;;;;;;11.07;2.88;;;;;;;10.17;68.27;101039.09;5009978;28;20050;-65
2023/12/30 02:09:04;;;;;;;9.52;2.65;;;;;;;10.17;68.27;101047.16;5016078;28;20046;-67
2023/12/30 02:11:33;;;;;;;14.15;2.85;;;;;;;10.18;68.17;101051.47;5022142;28;20046;-67
2023/12/30 02:14:02;;;;;;;15.10;2.65;;;;;;;10.17;68.45;101057.06;5025323;28;20092;-67
2023/12/30 02:16:30;;;;;;;12.98;2.05;;;;;;;10.17;68.26;101057.06;5029549;28;20418;-67
2023/12/30 02:18:58;;;;;;;14.85;3.05;;;;;;;10.17;68.26;101063.25;5019714;28;20076;-67
2023/12/30 02:21:26;;;;;;;10.82;2.60;;;;;;;10.16;68.45;101064.31;5016941;28;20073;-67
2023/12/30 02:23:55;;;;;;;14.68;3.20;;;;;;;10.15;68.45;101062.66;5021294;28;20469;-67
2023/12/30 02:26:24;;;;;;;12.45;2.50;;;;;;;10.05;68.60;101047.00;5025814;28;20050;-66
2023/12/30 02:28:52;;;;;;;16.10;2.75;;;;;;;10.16;68.43;101074.22;5022111;28;20050;-67
2023/12/30 02:31:19;;;;;;;11.13;3.25;;;;;;;10.15;68.56;101068.03;5025624;28;20049;-67
2023/12/30 02:33:47;;;;;;;14.65;4.13;;;;;;;10.15;68.68;101070.72;5023253;28;20076;-67
2023/12/30 02:36:15;;;;;;;15.13;3.83;;;;;;;10.14;68.58;101076.28;5024602;28;20081;-67
2023/12/30 02:38:43;;;;;;;10.88;2.42;;;;;;;10.14;68.59;101082.50;5031226;28;20049;-66
2023/12/30 02:41:12;;;;;;;14.32;3.35;;;;;;;10.14;68.70;101079.81;5023570;28;20068;-66
2023/12/30 02:43:51;;;;;;;17.65;3.35;;;;;;;10.14;68.68;101077.13;5025243;28;20050;-65
2023/12/30 02:46:19;;;;;;;12.57;2.50;;;;;;;10.13;68.77;101078.16;5020212;28;20107;-67
2023/12/30 02:48:47;;;;;;;11.88;3.03;;;;;;;10.12;68.66;101081.88;5024224;28;20065;-67
2023/12/30 02:51:15;;;;;;;16.00;2.65;;;;;;;10.12;68.66;101076.50;5019242;28;20057;-67
2023/12/30 02:53:43;;;;;;;10.75;3.33;;;;;;;10.12;68.53;101081.88;5024096;28;20052;-67
2023/12/30 02:56:20;;;;;;;11.18;2.30;;;;;;;10.10;68.65;101084.78;5015023;28;20045;-67
2023/12/30 02:58:49;;;;;;;;;;;;;;;10.10;68.68;101094.69;5032895;28;20458;-67
2023/12/30 03:01:17;;;;;;;9.40;2.63;;;;;;;10.06;68.31;101080.88;5006229;28;19922;-66
2023/12/30 03:03:45;;;;;;;11.05;2.53;;;;;;;10.08;68.64;101089.53;5021112;28;20065;-67
2023/12/30 03:06:14;;;;;;;12.98;2.38;;;;;;;10.06;68.80;101086.22;5011030;28;20049;-67
2023/12/30 03:08:42;;;;;;;13.25;2.80;;;;;;;10.05;68.67;101084.59;5021708;28;20049;-67
2023/12/30 03:11:10;;;;;;;11.77;2.33;;;;;;;10.05;68.64;101087.28;5023326;28;20046;-67
2023/12/30 03:13:39;;;;;;;15.68;2.50;;;;;;;10.04;68.52;101099.06;5013075;28;20041;-67
2023/12/30 03:16:08;;;;;;;13.50;2.65;;;;;;;10.03;68.48;101094.72;5014370;28;20052;-67
2023/12/30 03:18:36;;;;;;;9.82;2.20;;;;;;;10.05;68.79;101098.00;5023233;28;20107;-67
2023/12/30 03:21:07;;;;;;;14.10;3.10;;;;;;;10.03;68.58;101096.56;5020580;28;20042;-67
2023/12/30 03:23:35;;;;;;;12.23;2.13;;;;;;;9.99;68.75;101092.66;5022805;28;20050;-67
2023/12/30 03:26:03;;;;;;;12.68;2.63;;;;;;;10.03;68.71;101094.72;5016386;28;20046;-67
2023/12/30 03:28:31;;;;;;;15.82;3.05;;;;;;;10.03;68.66;101091.22;5023702;28;20054;-67
2023/12/30 03:31:00;;;;;;;8.82;2.15;;;;;;;9.93;68.69;101077.41;5012111;28;20042;-67
2023/12/30 03:33:28;;;;;;;18.90;2.90;;;;;;;10.02;68.76;101097.63;5021604;28;20046;-67
2023/12/30 03:35:56;;;;;;;9.57;2.97;;;;;;;10.02;68.76;101092.25;5017871;28;20054;-67
2023/12/30 03:38:24;;;;;;;13.80;2.90;;;;;;;9.97;68.95;101082.13;5021678;28;20050;-66
2023/12/30 03:40:52;;;;;;;12.07;2.35;;;;;;;10.01;68.85;101098.66;5011482;28;20111;-66
2023/12/30 03:43:19;;;;;;;11.05;2.38;;;;;;;10.00;68.57;101100.50;5025316;28;20103;-67
2023/12/30 03:45:47;;;;;;;12.30;3.72;;;;;;;9.99;68.75;101092.66;5018717;28;20122;-66
2023/12/30 03:48:16;;;;;;;10.80;2.75;;;;;;;9.99;68.75;101098.03;5020793;28;20085;-66
2023/12/30 03:50:44;;;;;;;14.82;2.65;;;;;;;9.92;68.80;101087.31;5016727;28;20050;-66
2023/12/30 03:53:12;;;;;;;8.80;2.33;;;;;;;9.97;68.84;101092.06;5008575;28;20047;-66
2023/12/30 03:55:40;;;;;;;15.25;2.80;;;;;;;9.96;68.65;101095.78;5021710;28;20126;-66
2023/12/30 03:58:08;;;;;;;8.40;2.00;;;;;;;9.96;68.71;101101.97;5014224;28;20060;-66
2023/12/30 04:00:34;;;;;;;8.98;2.03;;;;;;;9.94;68.56;101109.41;5018186;28;20097;-67
2023/12/30 04:03:02;;;;;;;14.90;2.22;;;;;;;9.93;69.06;101106.94;5019827;28;20046;-66
2023/12/30 04:05:32;;;;;;;10.57;2.88;;;;;;;9.93;68.75;101097.03;5013037;28;20054;-66
2023/12/30 04:08:00;;;;;;;11.57;3.03;;;;;;;9.93;68.75;101090.81;5006530;28;20051;-66
2023/12/30 04:10:27;;;;;;;8.55;2.20;;;;;;;9.93;68.78;101096.19;5020292;28;20050;-66
2023/12/30 04:12:54;;;;;;;13.00;2.38;;;;;;;9.93;68.88;101099.72;5016320;28;20066;-64
2023/12/30 04:15:23;;;;;;;8.13;1.88;;;;;;;9.92;68.85;101106.13;5015801;28;20082;-66
2023/12/30 04:17:50;;;;;;;15.52;3.28;;;;;;;9.92;68.61;101095.38;5026325;28;20053;-66
2023/12/30 04:20:18;;;;;;;12.80;3.08;;;;;;;9.91;68.84;101095.59;5028760;28;20076;-66
2023/12/30 04:22:47;;;;;;;8.45;2.15;;;;;;;9.91;68.88;101100.97;5024416;28;20042;-66
2023/12/30 04:25:15;;;;;;;12.73;2.22;;;;;;;9.90;68.64;101092.06;5025515;28;20079;-67
2023/12/30 04:27:43;;;;;;;8.10;1.70;;;;;;;9.91;68.81;101090.22;5011790;28;20084;-67
2023/12/30 04:30:12;;;;;;;11.65;2.78;;;;;;;9.90;68.86;101104.66;5020781;28;20045;-66
2023/12/30 04:32:40;;;;;;;7.10;2.05;;;;;;;9.90;69.07;101094.75;5009874;28;20042;-66
2023/12/30 04:35:08;;;;;;;14.10;2.40;;;;;;;9.91;68.71;101107.16;5022929;28;20119;-66
2023/12/30 04:37:36;;;;;;;13.68;2.72;;;;;;;9.91;68.88;101106.31;5030260;28;20105;-66
2023/12/30 04:40:07;;;;;;;6.93;2.15;;;;;;;9.89;68.96;101103.84;5007991;28;20060;-66
2023/12/30 04:42:35;;;;;;;13.80;2.38;;;;;;;9.89;68.93;101113.75;5010686;28;20053;-66
2023/12/30 04:45:04;;;;;;;12.65;2.63;;;;;;;9.89;68.90;101111.06;5023374;28;20133;-66
2023/12/30 04:47:31;;;;;;;10.32;1.67;;;;;;;9.89;68.94;101116.44;5015733;28;20053;-66
2023/12/30 04:49:59;;;;;;;13.27;2.20;;;;;;;9.88;68.80;101114.81;5036791;28;20054;-66
2023/12/30 04:52:27;;;;;;;12.05;1.95;;;;;;;9.87;69.05;101105.09;5022962;28;20038;-67
2023/12/30 04:54:56;;;;;;;15.85;3.80;;;;;;;9.86;68.95;101106.94;5034101;28;20437;-67
2023/12/30 04:57:25;;;;;;;10.40;2.63;;;;;;;9.85;68.97;101112.53;5026101;28;20094;-67
2023/12/30 04:59:53;;;;;;;13.15;2.60;;;;;;;9.86;68.99;101116.88;5026604;28;20088;-67
2023/12/30 05:02:21;;;;;;;10.27;1.95;;;;;;;9.86;69.03;101125.75;5031661;28;20073;-67
2023/12/30 05:04:48;;;;;;;10.45;2.22;;;;;;;9.86;68.86;101124.91;5019974;28;20058;-67
2023/12/30 05:07:16;;;;;;;13.07;2.40;;;;;;;9.85;68.99;101125.94;5021224;28;20455;-67
2023/12/30 05:09:44;;;;;;;15.23;2.75;;;;;;;9.84;69.09;101135.03;5018295;28;20109;-67
2023/12/30 05:12:12;;;;;;;11.27;2.40;;;;;;;9.83;69.22;101130.72;5034519;28;20049;-66
2023/12/30 05:14:41;;;;;;;14.75;3.10;;;;;;;9.82;69.23;101134.44;5020617;28;20071;-67
2023/12/30 05:17:09;;;;;;;9.88;2.28;;;;;;;9.82;69.08;101137.94;5019240;28;20082;-67
2023/12/30 05:19:37;;;;;;;14.43;2.67;;;;;;;9.81;69.25;101136.28;5007246;28;20074;-67
2023/12/30 05:22:05;;;;;;;14.77;3.63;;;;;;;9.78;69.07;101134.84;5020716;28;20045;-67
2023/12/30 05:24:33;;;;;;;11.77;2.08;;;;;;;9.77;69.35;101140.44;5019449;28;20042;-66
2023/12/30 05:27:00;;;;;;;11.98;2.35;;;;;;;9.77;69.27;101152.00;5023080;28;20122;-65
2023/12/30 05:29:28;;;;;;;15.20;2.67;;;;;;;9.75;69.60;101151.38;5019404;28;20456;-67
2023/12/30 05:31:57;;;;;;;13.18;2.42;;;;;;;9.77;68.98;101148.47;5025887;28;20068;-67
2023/12/30 05:34:25;;;;;;;11.23;2.20;;;;;;;9.75;69.17;101147.88;5013125;28;20508;-67
2023/12/30 05:36:53;;;;;;;9.07;2.15;;;;;;;9.74;69.13;101155.09;5021966;28;20066;-67
2023/12/30 05:39:21;;;;;;;15.43;3.38;;;;;;;9.73;69.03;101153.44;5022122;28;20114;-67
2023/12/30 05:41:49;;;;;;;11.68;2.70;;;;;;;9.73;69.18;101150.75;5024001;28;20065;-66
2023/12/30 05:44:17;;;;;;;11.93;2.42;;;;;;;9.72;69.18;101154.47;5030957;28;20045;-66
2023/12/30 05:46:45;;;;;;;12.23;2.67;;;;;;;9.72;69.10;101153.66;5023306;28;20050;-66
2023/12/30 05:49:14;;;;;;;12.55;2.90;;;;;;;9.72;69.29;101154.47;5019987;28;20046;-66
2023/12/30 05:51:42;;;;;;;15.75;3.20;;;;;;;9.66;69.08;101143.75;5018110;28;20057;-66
2023/12/30 05:54:10;;;;;;;15.18;2.40;;;;;;;9.68;69.19;101158.59;5028687;28;20061;-66
2023/12/30 05:56:38;;;;;;;14.35;2.47;;;;;;;9.69;69.09;101162.13;5023702;28;20046;-66
2023/12/30 05:59:06;;;;;;;8.73;2.47;;;;;;;9.69;68.99;101160.25;5017829;28;20106;-65
2023/12/30 06:01:34;;;;;;;14.40;3.17;;;;;;;9.68;69.14;101163.16;5034172;28;20085;-65
2023/12/30 06:04:02;;;;;;;12.73;2.78;;;;;;;9.67;68.67;101164.19;5033717;28;20121;-66
2023/12/30 06:06:31;;;;;;;19.30;2.90;;;;;;;9.67;68.87;101166.88;5011503;28;20463;-66
2023/12/30 06:09:00;;;;;;;9.48;2.60;;;;;;;9.65;68.68;101176.97;5019609;28;20109;-66
2023/12/30 06:11:27;;;;;;;12.73;3.22;;;;;;;9.65;68.87;101174.28;5021718;28;20048;-65
2023/12/30 06:13:55;;;;;;;15.48;4.05;;;;;;;9.64;68.67;101172.66;5017862;28;20069;-66
2023/12/30 06:16:23;;;;;;;9.20;2.33;;;;;;;9.63;68.85;101177.19;5022938;28;20100;-67
2023/12/30 06:18:51;;;;;;;11.95;2.30;;;;;;;9.62;68.80;101178.22;5020818;28;20536;-66
2023/12/30 06:21:19;;;;;;;9.10;2.30;;;;;;;9.62;68.90;101177.41;5020166;28;20053;-66
2023/12/30 06:23:48;;;;;;;10.52;2.92;;;;;;;9.60;68.90;101179.47;5035132;28;20038;-66
2023/12/30 06:26:16;;;;;;;11.50;2.67;;;;;;;9.62;68.92;101185.44;5033438;28;20046;-66
2023/12/30 06:28:45;;;;;;;11.90;2.83;;;;;;;9.59;69.04;101192.06;5022021;28;20053;-66
2023/12/30 06:31:13;;;;;;;12.07;2.65;;;;;;;9.58;68.77;101194.94;5021577;28;20082;-66
2023/12/30 06:33:41;;;;;;;13.15;2.58;;;;;;;9.53;68.81;101184.81;5026259;28;20098;-66
2023/12/30 06:36:11;;;;;;;17.95;3.22;;;;;;;9.57;68.88;101191.44;5019892;28;20042;-66
2023/12/30 06:38:38;;;;;;;8.80;3.05;;;;;;;9.56;68.98;101197.84;5017526;28;20057;-66
2023/12/30 06:41:08;;;;;;;11.60;2.40;;;;;;;9.56;68.91;101192.47;5024728;28;20045;-65
2023/12/30 06:43:36;;;;;;;9.75;2.40;;;;;;;9.56;69.00;101199.69;5027298;28;20107;-67
2023/12/30 06:46:05;;;;;;;8.93;2.58;;;;;;;9.56;69.09;101194.31;5020594;28;20054;-66
2023/12/30 06:48:32;;;;;;;14.70;3.00;;;;;;;9.56;68.96;101194.31;5011172;28;20054;-66
2023/12/30 06:51:02;;;;;;;13.60;2.70;;;;;;;9.57;69.05;101196.81;5011677;28;20042;-66
2023/12/30 06:53:30;;;;;;;9.75;2.05;;;;;;;9.57;68.81;101195.97;5016784;28;20411;-66
2023/12/30 06:56:00;;;;;;;12.60;2.63;;;;;;;9.56;68.78;101195.16;5013173;28;20046;-66
2023/12/30 06:58:30;;;;;;;13.02;2.40;;;;;;;9.55;69.21;101190.00;5021434;28;20046;-66
2023/12/30 07:00:58;;;;;;;13.10;2.63;;;;;;;9.56;69.25;101191.63;5027113;28;20118;-66
2023/12/30 07:03:26;;;;;;;13.57;2.13;;;;;;;9.55;68.92;101188.13;5030283;28;20038;-68
2023/12/30 07:05:53;;;;;;;11.70;2.35;;;;;;;9.54;68.74;101186.47;5029808;28;20045;-66
2023/12/30 07:08:21;;;;;;;7.75;2.38;;;;;;;9.56;68.90;101191.63;5023289;28;20110;-65
2023/12/30 07:10:49;;;;;;;11.40;2.45;;;;;;;9.55;69.26;101198.88;5031914;28;20049;-68
2023/12/30 07:13:17;;;;;;;8.60;2.53;;;;;;;9.55;69.05;101198.03;5022794;28;20042;-67
2023/12/30 07:15:47;;;;;;;10.93;3.20;;;;;;;9.55;69.23;101203.41;5023902;28;20062;-67
2023/12/30 07:18:15;;;;;;;13.40;2.78;;;;;;;9.56;68.97;101207.75;5020876;28;20054;-67
2023/12/30 07:20:43;;;;;;;7.53;2.10;;;;;;;9.55;68.80;101212.28;5003727;28;20485;-67
2023/12/30 07:23:11;;;;;;;11.70;3.05;;;;;;;9.55;69.17;101220.31;5022912;28;20067;-67
2023/12/30 07:25:40;;;;;;;10.77;3.03;;;;;;;9.55;69.12;101224.88;5026332;28;20045;-68
2023/12/30 07:28:08;;;;;;;10.32;2.33;;;;;;;9.55;69.11;101219.50;5020105;28;20130;-67
2023/12/30 07:30:36;;;;;;;7.90;1.95;;;;;;;9.53;68.96;101227.75;5014989;28;20039;-67
2023/12/30 07:33:05;;;;;;;9.35;2.20;;;;;;;9.54;68.89;101217.84;5021695;28;20148;-67
2023/12/30 07:35:34;;;;;;;9.18;2.28;;;;;;;9.53;69.34;101211.66;5015955;28;20080;-67
2023/12/30 07:38:01;;;;;;;10.20;2.10;;;;;;;9.53;69.01;101218.88;5011702;28;20072;-67
2023/12/30 07:40:29;;;;;;;14.80;2.60;;;;;;;9.50;69.27;101219.28;5022658;28;20046;-68
2023/12/30 07:42:57;;;;;;;12.32;2.70;;;;;;;9.36;69.65;101208.56;5029610;28;20105;-68
2023/12/30 07:45:25;;;;;;;11.15;2.40;;;;;;;9.38;69.61;101219.91;5014966;28;20050;-68
2023/12/30 07:47:52;;;;;;;16.30;2.92;;;;;;;9.44;69.53;101226.31;5019288;28;20058;-67
2023/12/30 07:50:22;;;;;;;6.65;2.38;;;;;;;9.56;69.41;101215.78;5021722;28;20065;-66
2023/12/30 07:52:50;;;;;;;11.82;2.28;;;;;;;9.77;68.43;101219.09;5021612;28;20053;-66
2023/12/30 07:55:18;;;;;;;12.73;2.67;;;;;;;9.94;67.80;101222.19;5023304;28;20079;-66
2023/12/30 07:57:46;;;;;;;13.07;2.72;;;;;;;10.12;67.33;101226.91;5018149;28;20043;-68
2023/12/30 08:00:14;;;;;;;14.40;2.28;;;;;;;10.30;66.57;101232.47;5019381;28;20068;-67
2023/12/30 08:02:44;;;;;;;12.82;2.83;;;;;;;10.49;65.91;101236.09;5013650;28;20086;-66
2023/12/30 08:05:12;;;;;;;9.52;1.85;;;;;;;10.66;65.40;101233.78;5010907;28;20073;-67
2023/12/30 08:07:41;;;;;;;10.43;1.80;;;;;;;10.81;65.02;101241.56;5020189;28;20077;-66
2023/12/30 08:10:11;;;;;;;8.18;2.30;;;;;;;10.93;64.26;101246.06;5003562;28;20050;-66
2023/12/30 08:12:39;;;;;;;11.50;3.03;;;;;;;11.04;64.19;101252.63;5004488;28;20054;-66
2023/12/30 08:15:09;;;;;;;15.13;3.38;;;;;;;11.09;63.86;101250.94;5021002;28;20050;-66
2023/12/30 08:17:37;;;;;;;9.57;4.00;;;;;;;11.05;64.00;101262.34;5009621;28;20053;-66
2023/12/30 08:20:06;;;;;;;10.00;2.33;;;;;;;10.93;64.41;101259.50;5015799;28;20051;-66
2023/12/30 08:22:34;;;;;;;10.10;2.20;;;;;;;10.76;64.88;101261.84;5016170;28;20049;-66
2023/12/30 08:25:03;;;;;;;9.40;2.28;;;;;;;10.58;65.29;101258.19;5022192;28;20110;-67
2023/12/30 08:27:31;;;;;;;9.48;2.45;;;;;;;10.49;65.98;101257.59;5020523;28;20192;-67
2023/12/30 08:29:59;;;;;;;10.93;2.72;;;;;;;10.38;66.29;101258.28;5009570;28;20106;-67
2023/12/30 08:32:27;;;;;;;7.63;2.15;;;;;;;10.28;66.50;101252.53;5034165;28;20113;-65
2023/12/30 08:34:56;;;;;;;9.95;3.75;;;;;;;10.21;66.84;101263.28;5015943;28;20037;-67
2023/12/30 08:37:24;;;;;;;9.20;2.33;;;;;;;10.16;67.25;101259.53;5024133;28;20053;-68
2023/12/30 08:39:52;;;;;;;9.85;2.42;;;;;;;10.08;67.11;101256.03;5020663;28;20347;-67
2023/12/30 08:42:21;;;;;;;13.30;2.67;;;;;;;10.06;67.54;101258.09;5019958;28;20050;-67
2023/12/30 08:44:49;;;;;;;11.38;2.13;;;;;;;10.03;67.63;101263.06;5014870;28;20049;-66
2023/12/30 08:47:17;;;;;;;11.73;2.42;;;;;;;9.98;67.87;101257.50;5034122;28;20106;-65
2023/12/30 08:49:45;;;;;;;11.95;2.60;;;;;;;9.95;67.97;101257.91;5016316;28;20054;-66
2023/12/30 08:52:13;;;;;;;9.02;2.80;;;;;;;9.91;68.23;101256.66;5021492;28;20053;-67
2023/12/30 08:54:41;;;;;;;13.57;3.03;;;;;;;9.85;68.20;101250.25;5015370;28;20073;-66
2023/12/30 08:57:09;;;;;;;10.75;2.38;;;;;;;9.85;68.44;101255.63;5021754;28;20049;-66
2023/12/30 08:59:38;;;;;;;13.30;2.55;;;;;;;9.84;68.46;101253.16;5019318;28;20050;-66
2023/12/30 09:02:06;;;;;;;14.95;3.28;;;;;;;9.83;68.67;101257.69;5020354;28;20057;-65
2023/12/30 09:04:34;;;;;;;12.45;4.05;;;;;;;9.79;68.69;101256.47;5021071;28;20060;-64
2023/12/30 09:07:02;;;;;;;17.60;3.42;;;;;;;9.71;69.41;101257.50;5019590;28;20046;-66
2023/12/30 09:09:30;;;;;;;15.02;2.70;;;;;;;9.71;69.46;101262.03;5014447;28;20376;-68
2023/12/30 09:11:58;;;;;;;15.30;2.88;;;;;;;9.71;69.24;101267.41;5014800;28;20094;-68
2023/12/30 09:14:26;;;;;;;12.32;2.97;;;;;;;9.72;69.59;101263.69;5013152;28;20064;-69
2023/12/30 09:16:55;;;;;;;11.00;2.65;;;;;;;9.73;69.43;101276.06;5015235;28;20050;-68
2023/12/30 09:19:23;;;;;;;12.50;2.97;;;;;;;9.77;69.39;101271.94;5024226;28;20050;-68
2023/12/30 09:21:50;;;;;;;15.50;3.00;;;;;;;9.72;69.77;101269.88;5016195;28;20071;-67
2023/12/30 09:24:18;;;;;;;10.40;3.20;;;;;;;9.72;69.74;101282.47;5017904;28;20371;-67
2023/12/30 09:26:46;;;;;;;14.85;3.28;;;;;;;9.75;69.84;101287.44;5015601;28;20057;-67
2023/12/30 09:29:14;;;;;;;12.27;2.35;;;;;;;9.76;69.23;101291.75;5018314;28;20065;-68
2023/12/30 09:31:42;;;;;;;17.98;3.17;;;;;;;9.76;69.80;101289.91;5020806;28;20075;-67
2023/12/30 09:34:11;;;;;;;10.93;3.88;;;;;;;9.76;69.58;101289.09;5017659;28;20049;-66
2023/12/30 09:36:39;;;;;;;16.50;3.70;;;;;;;9.75;69.42;101285.56;5015100;28;20113;-68
2023/12/30 09:39:10;;;;;;;16.40;3.72;;;;;;;9.76;69.93;101297.13;5012964;28;20114;-67
2023/12/30 09:41:40;;;;;;;14.80;2.67;;;;;;;9.75;69.48;101295.47;5019469;28;20054;-67
2023/12/30 09:44:09;;;;;;;16.70;2.90;;;;;;;9.77;69.48;101298.78;5016802;28;20060;-67
2023/12/30 09:46:37;;;;;;;14.05;4.45;;;;;;;9.76;69.62;101305.19;5021068;28;20053;-67
2023/12/30 09:49:07;;;;;;;11.13;2.67;;;;;;;9.75;69.60;101301.69;5018980;28;20148;-66
2023/12/30 09:51:36;;;;;;;11.35;2.97;;;;;;;9.76;70.05;101294.44;5020040;28;20103;-66
2023/12/30 09:54:04;;;;;;;9.07;2.60;;;;;;;9.75;69.99;101296.31;5018706;28;20113;-67
2023/12/30 09:56:33;;;;;;;12.07;3.20;;;;;;;9.75;69.89;101288.25;5015434;28;20073;-66
2023/12/30 09:59:01;;;;;;;8.38;2.83;;;;;;;9.73;69.76;101293.00;5021020;28;20053;-68
2023/12/30 10:01:30;;;;;;;9.23;2.53;;;;;;;9.77;70.10;101293.41;5021602;28;20053;-67
2023/12/30 10:03:58;;;;;;;9.15;2.50;;;;;;;9.76;69.74;101295.28;5005107;28;20080;-67
2023/12/30 10:06:26;;;;;;;20.58;4.03;;;;;;;9.76;69.71;101292.59;5011647;28;20046;-67
2023/12/30 10:08:55;;;;;;;11.82;2.38;;;;;;;9.77;69.96;101293.41;5009587;28;20042;-67
2023/12/30 10:11:23;;;;;;;10.43;2.75;;;;;;;9.76;70.20;101295.28;5020418;28;20080;-66
2023/12/30 10:13:53;;;;;;;11.85;2.72;;;;;;;9.78;70.04;101297.75;5013905;28;20046;-66
2023/12/30 10:16:22;;;;;;;12.73;2.63;;;;;;;9.78;70.04;101295.06;5035869;28;20045;-66
2023/12/30 10:18:50;;;;;;;9.70;2.58;;;;;;;9.78;70.23;101293.22;5017610;28;20487;-65
2023/12/30 10:21:18;;;;;;;17.42;3.20;;;;;;;9.79;70.07;101294.03;5013647;28;20114;-66
2023/12/30 10:23:48;;;;;;;11.82;3.25;;;;;;;9.79;70.14;101296.72;5006434;28;20046;-67
2023/12/30 10:26:17;;;;;;;8.45;3.25;;;;;;;9.78;69.92;101293.22;5017524;28;20494;-68
2023/12/30 10:28:45;;;;;;;10.90;3.20;;;;;;;9.79;70.27;101300.25;5017056;28;20066;-67
2023/12/30 10:31:17;;;;;;;15.35;2.92;;;;;;;9.81;70.05;101293.84;5018272;28;20103;-67
2023/12/30 10:33:48;;;;;;;11.43;2.55;;;;;;;9.83;70.20;101303.34;5016928;28;20046;-66
2023/12/30 10:36:17;;;;;;;9.25;2.80;;;;;;;9.81;70.34;101291.97;5020102;28;20046;-67
2023/12/30 10:38:46;;;;;;;14.55;3.97;;;;;;;9.85;70.44;101295.06;5019673;28;20057;-67
2023/12/30 10:41:14;;;;;;;18.50;3.83;;;;;;;9.83;70.10;101294.47;5015214;28;20050;-68
2023/12/30 10:43:43;;;;;;;11.25;3.45;;;;;;;9.86;70.44;101299.41;5019678;28;20056;-67
2023/12/30 10:46:12;;;;;;;14.45;3.53;;;;;;;9.86;70.30;101297.56;5020259;28;20107;-66
2023/12/30 10:48:53;;;;;;;14.43;3.10;;;;;;;9.87;70.44;101301.06;5021192;28;20081;-65
2023/12/30 10:51:24;;;;;;;14.00;3.13;;;;;;;9.87;70.15;101309.13;5016633;28;20463;-67
2023/12/30 10:54:04;;;;;;;11.80;3.92;;;;;;;9.87;70.57;101309.94;5018813;28;20046;-67
2023/12/30 10:56:39;;;;;;;16.08;3.78;;;;;;;9.88;70.44;101305.41;5016090;28;20098;-68
2023/12/30 10:59:09;;;;;;;15.40;3.70;;;;;;;9.90;70.55;101297.97;5013872;28;20045;-69
2023/12/30 11:01:37;;;;;;;10.00;3.08;;;;;;;9.91;70.47;101289.72;5016748;28;20045;-67
2023/12/30 11:04:11;;;;;;;12.65;3.70;;;;;;;9.96;70.55;101289.09;5015674;28;20073;-67
2023/12/30 11:06:46;;;;;;;11.90;3.30;;;;;;;10.02;70.68;101288.25;5021019;28;20045;-70
2023/12/30 11:09:14;;;;;;;15.05;3.55;;;;;;;10.19;70.07;101277.91;5018683;28;20048;-70
2023/12/30 11:11:49;;;;;;;13.45;3.58;;;;;;;10.37;69.33;101280.81;5019942;28;20057;-74
2023/12/30 11:14:19;;;;;;;12.25;3.67;;;;;;;10.47;68.95;101270.44;5013926;28;20064;-73
2023/12/30 11:16:50;;;;;;;9.63;2.90;;;;;;;10.73;68.57;101264.97;5020299;28;20045;-68
2023/12/30 11:19:28;;;;;;;12.38;4.10;;;;;;;10.90;67.65;101280.63;5017912;28;20050;-70
2023/12/30 11:21:57;;;;;;;15.82;4.63;;;;;;;10.90;67.33;101272.56;5020901;28;20498;-69
2023/12/30 11:24:27;;;;;;;11.77;2.60;;;;;;;10.87;67.54;101276.50;5016995;28;20082;-71
2023/12/30 11:26:55;;;;;;;13.25;3.78;;;;;;;10.79;67.99;101275.91;5017260;28;20129;-71
2023/12/30 11:29:26;;;;;;;14.45;3.45;;;;;;;10.69;68.32;101274.50;5013877;28;20455;-71